Latest Weather Observations for Moorabbin Airport

IDV60801

Issued at 3:35 pm EDT Friday 31 October 2014 (issued every 30 minutes, with the page automatically refreshed every 10 minutes)

About weather observations | Map of weather stations | Latest weather observations for VIC | Other Formats
Station Details ID: 086077 Name: MOORABBIN AIRPORT Lat: -37.98 Lon: 145.10 Height: 12.1 m
Data from the previous 72 hours. | See also: Recent months at Moorabbin Airport
Date/Time
EDT
Temp
°C
App
Temp
°C
Dew
Point
Rel
Hum
%
Delta-T
°C
Wind Press
QNH
hPa
Press
MSL
hPa
Rain
since 9 am
mm
Dir
 
Spd
km/h
Gust
km/h
Spd
kts
Gust
kts
31/03:30pm 30.8 23.1 5.3 20 13.5 N 35 48 19 26 1001.3 1001.3 0.0
31/03:01pm 30.3 22.6 6.9 23 12.6 N 37 56 20 30 1002.0 1002.0 0.0
31/03:00pm 30.3 22.0 6.2 22 12.9 N 39 56 21 30 1002.0 1002.0 0.0
31/02:34pm 30.2 22.5 5.5 21 13.0 N 35 57 19 31 1002.4 1002.4 0.0
31/02:30pm 30.0 22.1 4.6 20 13.1 N 35 50 19 27 1002.6 1002.6 0.0
31/02:00pm 29.4 22.0 4.1 20 13.0 N 32 46 17 25 1003.3 1003.3 0.0
31/01:31pm 28.9 21.7 5.7 23 12.1 N 33 52 18 28 1003.9 1003.9 0.0
31/01:30pm 29.3 21.9 6.7 24 12.1 N 35 52 19 28 1003.9 1003.9 0.0
31/01:00pm 27.8 19.9 4.2 22 12.0 N 35 48 19 26 1004.5 1004.5 0.0
31/12:30pm 27.9 20.7 6.1 25 11.4 N 33 48 18 26 1005.2 1005.2 0.0
31/12:00pm 24.8 19.7 9.1 37 8.5 N 26 35 14 19 1006.2 1006.2 0.0
31/11:30am 24.4 20.8 10.7 42 7.6 N 20 30 11 16 1007.1 1007.1 0.0
31/11:00am 22.4 18.9 10.9 48 6.4 N 20 26 11 14 1007.8 1007.8 0.0
31/10:30am 20.8 17.9 10.9 53 5.4 N 17 20 9 11 1008.2 1008.2 0.0
31/10:00am 18.5 17.2 11.1 62 4.0 N 9 13 5 7 1008.7 1008.7 0.0
31/09:30am 16.9 15.4 10.7 67 3.3 N 9 11 5 6 1009.1 1009.1 0.0
31/09:00am 15.2 13.3 10.6 74 2.4 N 11 15 6 8 1009.4 1009.4 0.0
31/08:30am 13.9 12.7 10.3 79 1.9 N 7 11 4 6 1009.8 1009.8 0.0
31/08:00am 13.2 11.3 10.4 83 1.5 N 11 13 6 7 1009.9 1009.9 0.0
31/07:30am 12.1 10.4 10.0 87 1.1 N 9 11 5 6 1010.2 1010.2 0.0
31/07:00am 10.6 8.9 9.7 94 0.5 N 9 11 5 6 1010.5 1010.5 0.0
31/06:30am 9.7 8.2 8.6 93 0.5 N 6 9 3 5 1010.6 1010.6 0.0
31/06:00am 9.2 7.5 7.6 90 0.8 N 6 9 3 5 1010.6 1010.6 0.0
31/05:30am 9.2 8.0 8.1 93 0.5 NW 4 6 2 3 1010.4 1010.4 0.0
31/05:00am 8.7 6.4 7.3 91 0.7 NNE 9 11 5 6 1010.5 1010.5 0.0
31/04:30am 9.2 8.8 8.3 94 0.4 CALM 0 0 0 0 1011.0 1011.0 0.0
31/04:00am 9.5 9.2 8.7 95 0.4 CALM 0 0 0 0 1010.9 1010.9 0.0
31/03:30am 9.4 9.0 8.2 92 0.6 CALM 0 0 0 0 1011.4 1011.4 0.0
31/03:00am 10.3 9.0 9.1 92 0.6 N 6 6 3 3 1011.7 1011.7 0.0
31/02:30am 9.9 9.6 8.5 91 0.7 CALM 0 0 0 0 1012.0 1012.0 0.0
31/02:00am 10.5 9.9 8.8 89 0.8 N 2 4 1 2 1012.5 1012.5 0.0
31/01:30am 11.1 11.0 9.4 89 0.9 CALM 0 0 0 0 1013.1 1013.1 0.0
31/01:00am 10.8 10.3 9.2 90 0.8 SE 2 6 1 3 1013.8 1013.8 0.0
31/12:30am 10.9 9.5 9.0 88 0.9 SE 6 7 3 4 1013.8 1013.8 0.0
31/12:00am 11.3 9.8 9.2 87 1.0 SE 7 9 4 5 1013.9 1013.9 0.0
 
Date/Time
EDT
Temp
°C
App
Temp
°C
Dew
Point
Rel
Hum
%
Delta-T
°C
Wind Press
QNH
hPa
Press
MSL
hPa
Rain
since 9 am
mm
Dir
 
Spd
km/h
Gust
km/h
Spd
kts
Gust
kts
30/11:30pm 11.7 9.9 9.3 85 1.2 SE 9 11 5 6 1013.9 1013.9 0.0
30/11:00pm 12.0 10.2 9.4 84 1.3 SSE 9 13 5 7 1014.1 1014.1 0.0
30/10:30pm 12.4 9.8 9.4 82 1.5 SE 13 17 7 9 1014.1 1014.1 0.0
30/10:00pm 13.0 10.1 9.6 80 1.7 SE 15 17 8 9 1014.0 1014.0 0.0
30/09:30pm 13.1 10.2 9.7 80 1.7 SE 15 17 8 9 1013.7 1013.7 0.0
30/09:00pm 13.7 10.9 9.9 78 2.0 SE 15 20 8 11 1013.7 1013.7 0.0
30/08:30pm 14.2 10.5 9.6 74 2.4 SE 19 24 10 13 1013.5 1013.5 0.0
30/08:00pm 15.0 11.0 9.1 68 3.0 SE 20 26 11 14 1013.2 1013.2 0.0
30/07:30pm 16.5 14.4 9.9 65 3.5 S 11 20 6 11 1012.8 1012.8 0.0
30/07:00pm 17.4 15.0 10.1 62 3.9 SSW 13 17 7 9 1012.9 1012.9 0.0
30/06:30pm 17.9 14.5 9.3 57 4.5 S 17 20 9 11 1012.6 1012.6 0.0
30/06:00pm 18.6 15.3 9.4 55 4.8 S 17 22 9 12 1012.8 1012.8 0.0
30/05:30pm 18.6 14.7 8.8 53 5.1 S 19 24 10 13 1012.8 1012.8 0.0
30/05:00pm 18.6 14.7 9.4 55 4.8 SSW 20 26 11 14 1012.9 1012.9 0.0
30/04:30pm 18.4 14.3 8.7 53 5.0 S 20 26 11 14 1012.8 1012.8 0.0
30/04:00pm 18.0 13.9 8.8 55 4.8 S 20 28 11 15 1013.0 1013.0 0.0
30/03:30pm 18.2 14.5 9.5 57 4.6 SSW 19 22 10 12 1013.0 1013.0 0.0
30/03:00pm 18.7 15.3 9.2 54 5.0 SSW 17 24 9 13 1013.3 1013.3 0.0
30/02:30pm 18.1 14.9 8.4 53 5.0 SSW 15 22 8 12 1013.6 1013.6 0.0
30/02:00pm 18.0 14.3 8.0 52 5.1 SSW 17 24 9 13 1013.9 1013.9 0.0
30/01:30pm 18.0 14.0 8.3 53 5.0 SW 19 24 10 13 1014.3 1014.3 0.0
30/01:00pm 17.2 13.0 8.4 56 4.5 SW 20 26 11 14 1014.7 1014.7 0.0
30/12:30pm 17.2 14.0 8.6 57 4.4 SSW 15 26 8 14 1014.8 1014.8 0.0
30/12:00pm 16.7 13.6 8.7 59 4.1 SW 15 24 8 13 1015.0 1015.0 0.0
30/11:30am 16.0 12.2 9.0 63 3.6 SSW 19 24 10 13 1015.4 1015.4 0.0
30/11:00am 15.6 11.6 8.1 61 3.8 WSW 19 28 10 15 1015.7 1015.7 0.0
30/10:30am 15.1 11.1 9.0 67 3.1 SW 20 30 11 16 1016.1 1016.1 0.0
30/10:00am 14.9 11.1 9.7 71 2.7 WSW 20 28 11 15 1015.9 1015.9 0.0
30/09:30am 14.8 11.2 9.8 72 2.6 W 19 26 10 14 1015.8 1015.8 0.0
30/09:00am 14.7 11.4 9.5 71 2.7 WNW 17 24 9 13 1015.8 1015.8 0.0
30/08:30am 14.3 11.0 9.5 73 2.5 W 17 26 9 14 1015.6 1015.6 0.0
30/08:25am 14.3 11.0 9.5 73 2.5 W 17 26 9 14 1015.5 1015.5 0.0
30/08:00am 14.4 10.7 9.6 73 2.5 WSW 19 24 10 13 1015.8 1015.8 0.0
30/07:30am 14.5 11.8 8.9 69 2.8 W 13 20 7 11 1015.0 1015.0 0.0
30/07:06am 14.4 11.3 8.8 69 2.8 W 15 20 8 11 1014.9 1014.9 0.0
30/07:00am 14.4 12.0 8.8 69 2.8 W 11 17 6 9 1014.9 1014.9 0.0
30/06:30am 14.3 12.3 8.7 69 2.8 WNW 9 13 5 7 1014.4 1014.4 0.0
30/06:00am 14.2 12.5 9.8 75 2.3 WNW 9 15 5 8 1014.2 1014.2 0.0
30/05:30am 14.2 12.6 10.2 77 2.1 W 9 11 5 6 1014.6 1014.6 0.0
30/05:00am 14.0 13.1 10.6 80 1.8 WNW 6 9 3 5 1014.5 1014.5 0.0
30/04:30am 13.8 12.9 10.6 81 1.7 NNW 6 7 3 4 1014.3 1014.3 0.0
30/04:00am 13.8 12.3 10.6 81 1.7 N 9 11 5 6 1014.2 1014.2 0.0
30/03:30am 13.7 12.6 10.7 82 1.6 NNW 7 11 4 6 1014.4 1014.4 0.0
30/03:00am 13.8 12.3 10.6 81 1.7 NNW 9 11 5 6 1014.6 1014.6 0.0
30/02:30am 13.7 12.8 10.7 82 1.6 NNW 6 7 3 4 1014.9 1014.9 0.0
30/02:00am 13.3 12.2 10.7 84 1.4 N 7 9 4 5 1015.2 1015.2 0.0
30/01:30am 13.1 12.2 10.5 84 1.4 N 6 7 3 4 1015.7 1015.7 0.0
30/01:00am 12.5 11.5 10.2 86 1.2 NNW 6 7 3 4 1016.0 1016.0 0.0
30/12:30am 12.1 11.0 9.8 86 1.2 NW 6 7 3 4 1016.3 1016.3 0.0
30/12:00am 12.1 12.1 9.7 85 1.2 CALM 0 0 0 0 1016.2 1016.2 0.0
 
Date/Time
EDT
Temp
°C
App
Temp
°C
Dew
Point
Rel
Hum
%
Delta-T
°C
Wind Press
QNH
hPa
Press
MSL
hPa
Rain
since 9 am
mm
Dir
 
Spd
km/h
Gust
km/h
Spd
kts
Gust
kts
29/11:30pm 12.4 11.1 9.8 84 1.3 E 7 9 4 5 1016.2 1016.2 0.0
29/11:00pm 12.2 10.8 9.6 84 1.3 E 7 7 4 4 1016.4 1016.4 0.0
29/10:30pm 12.1 9.8 9.1 82 1.5 ESE 11 13 6 7 1016.3 1016.3 0.0
29/10:00pm 13.0 10.5 9.8 81 1.6 SE 13 15 7 8 1016.5 1016.5 0.0
29/09:30pm 13.1 10.2 9.5 79 1.8 SE 15 19 8 10 1016.3 1016.3 0.0
29/09:00pm 13.7 10.8 9.7 77 2.1 SE 15 17 8 9 1016.0 1016.0 0.0
29/08:30pm 15.5 12.6 9.8 69 3.0 SSE 15 20 8 11 1015.7 1015.7 0.0
29/08:00pm 16.0 13.0 10.5 70 2.9 S 17 20 9 11 1015.3 1015.3 0.0
29/07:30pm 16.7 13.0 9.6 63 3.7 SSW 19 28 10 15 1014.8 1014.8 0.0
29/07:00pm 16.9 12.4 10.1 64 3.6 SSW 24 32 13 17 1014.5 1014.5 0.0
29/06:30pm 17.3 12.3 9.5 60 4.1 SSW 26 35 14 19 1014.5 1014.5 0.0
29/06:00pm 18.2 13.8 9.0 55 4.8 S 22 30 12 16 1014.3 1014.3 0.0
29/05:30pm 19.3 15.2 7.7 47 5.9 SSW 19 24 10 13 1014.3 1014.3 0.0
29/05:00pm 19.6 15.6 8.3 48 5.9 SSW 19 24 10 13 1014.4 1014.4 0.0
29/04:30pm 19.2 15.9 7.9 48 5.8 SW 15 20 8 11 1014.5 1014.5 0.0
29/04:00pm 18.9 15.4 8.8 52 5.3 SSW 17 20 9 11 1014.8 1014.8 0.0
29/03:30pm 18.6 15.6 9.4 55 4.8 SSW 15 20 8 11 1015.2 1015.2 0.0
29/03:00pm 18.5 15.5 9.3 55 4.8 SW 15 20 8 11 1015.6 1015.6 0.0
29/02:30pm 18.6 15.8 8.6 52 5.2 WSW 13 24 7 13 1016.2 1016.2 0.0
29/02:00pm 17.6 14.5 9.0 57 4.5 SW 15 20 8 11 1016.7 1016.7 0.0
29/01:30pm 17.0 13.2 8.9 59 4.2 SW 19 26 10 14 1017.1 1017.1 0.0
29/01:00pm 17.2 13.8 9.1 59 4.2 SW 17 24 9 13 1017.4 1017.4 0.0
29/12:30pm 16.4 12.5 7.1 54 4.6 WNW 17 24 9 13 1017.8 1017.8 0.0
29/12:00pm 15.9 12.1 7.4 57 4.2 WNW 17 24 9 13 1018.2 1018.2 0.0
29/11:30am 15.5 12.4 7.3 58 4.1 WNW 13 24 7 13 1018.4 1018.4 0.0
29/11:00am 14.8 11.4 7.8 63 3.5 W 15 20 8 11 1018.7 1018.7 0.0
29/10:30am 14.2 11.2 7.7 65 3.2 W 13 20 7 11 1018.9 1018.9 0.0
29/10:00am 14.0 10.9 7.3 64 3.3 W 13 22 7 12 1018.9 1018.9 0.0
29/09:30am 14.1 11.6 8.1 67 3.0 WNW 11 15 6 8 1019.0 1019.0 0.0
29/09:00am 13.4 10.5 8.3 71 2.5 WNW 13 20 7 11 1018.9 1018.9 1.4
29/08:30am 13.2 10.4 8.5 73 2.3 NW 13 20 7 11 1018.7 1018.7 1.4
29/08:00am 12.3 9.5 8.4 77 1.9 NNW 13 17 7 9 1018.6 1018.6 1.4
29/07:30am 12.0 9.6 8.5 79 1.7 N 11 17 6 9 1018.5 1018.5 1.4
29/07:00am 11.5 9.1 8.5 82 1.5 NNW 11 17 6 9 1018.3 1018.3 1.4
29/06:30am 11.3 9.3 8.7 84 1.3 NW 9 13 5 7 1017.9 1017.9 1.4
29/06:00am 10.6 8.5 8.4 86 1.1 NW 9 11 5 6 1017.6 1017.6 1.4
29/05:30am 10.7 8.6 8.1 84 1.3 NW 9 13 5 7 1017.4 1017.4 1.4
29/05:00am 10.9 8.4 8.0 82 1.4 NW 11 17 6 9 1017.2 1017.2 1.4
29/04:30am 11.5 8.6 8.0 79 1.7 WNW 13 17 7 9 1017.1 1017.1 1.4
29/04:00am 11.7 8.8 8.2 79 1.7 WNW 13 19 7 10 1016.9 1016.9 1.4
29/03:30am 12.4 9.5 8.3 76 2.0 WNW 13 17 7 9 1016.8 1016.8 1.4
29/03:00am 12.8 9.8 7.5 70 2.6 W 13 20 7 11 1016.8 1016.8 1.4
29/02:30am 13.0 9.5 7.0 67 2.9 W 15 30 8 16 1016.8 1016.8 1.4
29/02:00am 12.9 9.1 7.4 69 2.7 W 17 30 9 16 1016.8 1016.8 1.4
29/01:30am 13.1 8.8 6.9 66 3.0 W 19 26 10 14 1017.2 1017.2 1.4
29/01:00am 13.2 9.3 7.0 66 3.0 W 17 20 9 11 1017.4 1017.4 1.4
29/12:30am 13.3 10.0 6.4 63 3.3 W 13 24 7 13 1017.5 1017.5 1.4
29/12:00am 13.4 8.9 6.0 61 3.5 W 19 32 10 17 1017.5 1017.5 1.4
 
Date/Time
EDT
Temp
°C
App
Temp
°C
Dew
Point
Rel
Hum
%
Delta-T
°C
Wind Press
QNH
hPa
Press
MSL
hPa
Rain
since 9 am
mm
Dir
 
Spd
km/h
Gust
km/h
Spd
kts
Gust
kts
28/11:30pm 13.4 9.3 6.3 62 3.4 WSW 17 24 9 13 1017.3 1017.3 1.4
28/11:00pm 13.2 7.6 5.6 60 3.6 WSW 24 35 13 19 1017.4 1017.4 1.4
28/10:30pm 13.1 7.6 5.8 61 3.4 W 24 39 13 21 1017.3 1017.3 1.4
28/10:00pm 13.3 7.6 6.9 65 3.1 W 26 39 14 21 1017.2 1017.2 1.4
28/09:58pm 13.3 7.3 6.9 65 3.1 W 28 46 15 25 1017.2 1017.2 1.4
28/09:30pm 13.5 8.8 7.7 68 2.9 WSW 22 33 12 18 1016.9 1016.9 1.4
28/09:00pm 14.0 9.9 8.6 70 2.7 SW 20 28 11 15 1016.7 1016.7 1.4
28/08:30pm 14.9 8.8 6.7 58 4.0 WSW 28 39 15 21 1016.1 1016.1 1.4
28/08:00pm 15.3 9.9 6.3 55 4.4 WSW 24 37 13 20 1015.5 1015.5 1.4
28/07:30pm 14.6 10.8 9.0 69 2.9 SW 19 28 10 15 1015.2 1015.2 1.4
28/07:00pm 14.5 9.8 9.1 70 2.8 SSW 24 32 13 17 1014.7 1014.7 1.4
28/06:30pm 15.1 10.5 9.7 70 2.8 SSW 24 32 13 17 1014.2 1014.2 1.4
28/06:00pm 15.4 11.2 9.7 69 3.0 SSW 22 30 12 16 1013.9 1013.9 1.4
28/05:30pm 15.7 11.5 9.6 67 3.2 SSW 22 32 12 17 1013.5 1013.5 1.4
28/05:00pm 17.6 11.3 7.4 51 5.1 WSW 30 43 16 23 1013.1 1013.1 1.4
28/04:34pm 17.5 10.9 7.8 53 4.9 WSW 32 50 17 27 1013.1 1013.1 1.4
28/04:30pm 17.6 11.1 8.2 54 4.8 WSW 32 48 17 26 1013.2 1013.2 1.4
28/04:00pm 17.8 10.8 8.6 55 4.7 WSW 35 56 19 30 1013.0 1013.0 1.4
28/03:59pm 17.7 10.6 8.0 53 4.9 WSW 35 56 19 30 1013.0 1013.0 1.4

Other Formats:

Comma delimited format used in spreadsheet applications
http://www.bom.gov.au/fwo/IDV60801/IDV60801.94870.axf

JavaScript Object Notation format (JSON) in row-major order
http://www.bom.gov.au/fwo/IDV60801/IDV60801.94870.json